createdAt,value
2018-04-01T00:00:08.051Z,0.00
2018-04-01T00:01:07.974Z,0.00
2018-04-01T00:02:07.901Z,0.00
2018-04-01T00:03:07.816Z,0.00
2018-04-01T00:04:07.738Z,0.00
2018-04-01T00:05:07.662Z,0.00
2018-04-01T00:06:07.581Z,0.00
2018-04-01T00:07:07.501Z,0.00
2018-04-01T00:08:07.425Z,0.00
2018-04-01T00:09:07.343Z,0.00
2018-04-01T00:10:07.266Z,0.00
2018-04-01T00:11:07.188Z,0.00
2018-04-01T00:12:07.111Z,0.00
2018-04-01T00:13:07.036Z,0.00
2018-04-01T00:14:07.031Z,0.00
2018-04-01T00:15:06.874Z,0.00
2018-04-01T00:16:06.796Z,0.00
2018-04-01T00:17:06.717Z,0.00
2018-04-01T00:18:06.639Z,0.00
2018-04-01T00:19:06.560Z,0.00
2018-04-01T00:20:06.480Z,0.00
2018-04-01T00:21:06.402Z,0.00
2018-04-01T00:22:06.323Z,0.00
2018-04-01T00:23:06.244Z,0.00
2018-04-01T00:24:06.171Z,0.00
2018-04-01T00:25:06.087Z,0.00
2018-04-01T00:26:06.010Z,0.00
2018-04-01T00:27:05.930Z,0.00
2018-04-01T00:28:05.858Z,0.00
2018-04-01T00:29:05.773Z,0.00
2018-04-01T00:30:05.695Z,0.00
2018-04-01T00:31:05.621Z,0.00
2018-04-01T00:32:05.537Z,0.00
2018-04-01T00:33:05.457Z,0.00
2018-04-01T00:34:05.379Z,0.00
2018-04-01T00:35:05.301Z,0.00
2018-04-01T00:36:05.223Z,0.00
2018-04-01T00:37:05.141Z,0.00
2018-04-01T00:38:05.063Z,0.00
2018-04-01T00:39:04.985Z,0.00
2018-04-01T00:40:04.906Z,0.00
2018-04-01T00:41:04.827Z,0.00
2018-04-01T00:42:04.748Z,0.00
2018-04-01T00:43:04.670Z,0.00
2018-04-01T00:44:04.591Z,0.00
2018-04-01T00:45:04.512Z,0.00
2018-04-01T00:46:04.430Z,0.00
2018-04-01T00:47:04.355Z,0.00
2018-04-01T00:48:04.275Z,0.00
2018-04-01T00:49:04.196Z,0.00
2018-04-01T00:50:04.114Z,0.00
2018-04-01T00:51:04.037Z,0.00
2018-04-01T00:52:03.960Z,0.00
2018-04-01T00:53:03.879Z,0.00
2018-04-01T00:54:03.801Z,0.00
2018-04-01T00:55:03.723Z,0.00
2018-04-01T00:56:03.642Z,0.00
2018-04-01T00:57:03.562Z,0.00
2018-04-01T00:58:03.486Z,0.00
2018-04-01T00:59:03.406Z,0.00
2018-04-01T01:00:03.328Z,0.00
2018-04-01T01:01:03.249Z,0.00
2018-04-01T01:02:03.169Z,0.00
2018-04-01T01:03:03.090Z,0.00
2018-04-01T01:04:03.014Z,0.00
2018-04-01T01:05:02.930Z,0.00
2018-04-01T01:06:02.853Z,0.00
2018-04-01T01:07:02.776Z,0.00
2018-04-01T01:08:02.694Z,0.00
2018-04-01T01:09:02.609Z,0.00
2018-04-01T01:10:02.536Z,0.00
2018-04-01T01:11:02.457Z,0.00
2018-04-01T01:12:02.378Z,0.00
2018-04-01T01:13:02.298Z,0.00
2018-04-01T01:14:02.219Z,0.00
2018-04-01T01:15:02.140Z,0.00
2018-04-01T01:16:02.058Z,0.00
2018-04-01T01:17:01.984Z,0.00
2018-04-01T01:18:01.912Z,0.00
2018-04-01T01:19:01.823Z,0.00
2018-04-01T01:20:01.748Z,0.00
2018-04-01T01:21:01.668Z,0.00
2018-04-01T01:22:01.586Z,0.00
2018-04-01T01:23:01.510Z,0.00
2018-04-01T01:24:01.428Z,0.00
2018-04-01T01:25:01.348Z,0.00
2018-04-01T01:26:01.272Z,0.00
2018-04-01T01:27:01.190Z,0.00
2018-04-01T01:28:01.116Z,0.00
2018-04-01T01:29:01.035Z,0.00
2018-04-01T01:30:00.953Z,0.00
2018-04-01T01:31:00.885Z,0.00
2018-04-01T01:32:00.796Z,0.00
2018-04-01T01:33:00.716Z,0.00
2018-04-01T01:34:00.645Z,0.00
2018-04-01T01:35:00.557Z,0.00
2018-04-01T01:36:00.479Z,0.00
2018-04-01T01:37:00.401Z,0.00
2018-04-01T01:38:00.323Z,0.00
2018-04-01T01:39:00.241Z,0.00
2018-04-01T01:40:00.164Z,0.00
2018-04-01T01:41:00.084Z,0.00
2018-04-01T01:42:00.007Z,0.00
2018-04-01T01:42:59.926Z,0.00
2018-04-01T01:43:59.846Z,0.00
2018-04-01T01:44:59.765Z,0.00
2018-04-01T01:45:59.686Z,0.00
2018-04-01T01:46:59.610Z,0.00
2018-04-01T01:47:59.539Z,0.00
2018-04-01T01:48:59.448Z,0.00
2018-04-01T01:49:59.378Z,0.00
2018-04-01T01:50:59.290Z,0.00
2018-04-01T01:51:59.212Z,0.00
2018-04-01T01:52:59.134Z,0.00
2018-04-01T01:53:59.051Z,0.00
2018-04-01T01:54:58.974Z,0.00
2018-04-01T01:55:58.899Z,0.00
2018-04-01T01:56:58.816Z,0.00
2018-04-01T01:57:58.735Z,0.00
2018-04-01T01:58:58.659Z,0.00
2018-04-01T01:59:58.577Z,0.00
2018-04-01T02:00:58.498Z,0.00
2018-04-01T02:01:58.421Z,0.00
2018-04-01T02:02:58.341Z,0.00
2018-04-01T02:03:58.260Z,0.00
2018-04-01T02:04:58.185Z,0.00
2018-04-01T02:05:58.100Z,0.00
2018-04-01T02:06:58.019Z,0.00
2018-04-01T02:07:57.946Z,0.00
2018-04-01T02:08:57.860Z,0.00
2018-04-01T02:09:57.812Z,0.00
2018-04-01T02:10:57.718Z,0.00
2018-04-01T02:11:57.623Z,0.00
2018-04-01T02:12:57.544Z,0.00
2018-04-01T02:13:57.467Z,0.00
2018-04-01T02:14:57.383Z,0.00
2018-04-01T02:15:57.305Z,0.00
2018-04-01T02:16:57.227Z,0.00
2018-04-01T02:17:57.148Z,0.00
2018-04-01T02:18:57.070Z,0.00
2018-04-01T02:19:56.988Z,0.00
2018-04-01T02:20:56.914Z,0.00
2018-04-01T02:21:56.831Z,0.00
2018-04-01T02:22:56.748Z,0.00
2018-04-01T02:23:56.671Z,0.00
2018-04-01T02:24:56.591Z,0.00
2018-04-01T02:25:56.523Z,0.00
2018-04-01T02:26:56.433Z,0.00
2018-04-01T02:27:56.354Z,0.00
2018-04-01T02:28:56.272Z,0.00
2018-04-01T02:29:56.189Z,0.00
2018-04-01T02:30:56.117Z,0.00
2018-04-01T02:31:56.040Z,0.00
2018-04-01T02:32:55.953Z,0.00
2018-04-01T02:33:55.875Z,0.00
2018-04-01T02:34:55.804Z,0.00
2018-04-01T02:35:55.717Z,0.00
2018-04-01T02:36:55.635Z,0.00
2018-04-01T02:37:55.556Z,0.00
2018-04-01T02:38:55.478Z,0.00
2018-04-01T02:39:55.397Z,0.00
2018-04-01T02:40:55.318Z,0.00
2018-04-01T02:41:55.241Z,0.00
2018-04-01T02:42:55.162Z,0.00
2018-04-01T02:43:55.078Z,0.00
2018-04-01T02:44:55.000Z,0.00
2018-04-01T02:45:54.923Z,0.00
2018-04-01T02:46:54.840Z,0.00
2018-04-01T02:47:54.766Z,0.00
2018-04-01T02:48:54.680Z,0.00
2018-04-01T02:49:54.601Z,0.00
2018-04-01T02:50:54.520Z,0.00
2018-04-01T02:51:54.445Z,0.00
2018-04-01T02:52:54.362Z,0.00
2018-04-01T02:53:54.284Z,0.00
2018-04-01T02:54:54.203Z,0.00
2018-04-01T02:55:54.128Z,0.00
2018-04-01T02:56:54.045Z,0.00
2018-04-01T02:57:53.979Z,0.00
2018-04-01T02:58:53.888Z,0.00
2018-04-01T02:59:53.807Z,0.00
2018-04-01T03:00:53.726Z,0.00
2018-04-01T03:01:53.647Z,0.00
2018-04-01T03:02:53.571Z,0.00
2018-04-01T03:03:53.486Z,0.00
2018-04-01T03:04:53.408Z,0.00
2018-04-01T03:05:53.328Z,0.00
2018-04-01T03:06:53.252Z,0.00
2018-04-01T03:07:53.169Z,0.00
2018-04-01T03:08:53.089Z,0.00
2018-04-01T03:09:53.013Z,0.00
2018-04-01T03:10:52.931Z,0.00
2018-04-01T03:11:52.854Z,0.00
2018-04-01T03:12:52.770Z,0.00
2018-04-01T03:13:52.692Z,0.00
2018-04-01T03:14:52.614Z,0.00
2018-04-01T03:15:52.535Z,0.00
2018-04-01T03:16:52.463Z,0.00
2018-04-01T03:17:52.381Z,0.00
2018-04-01T03:18:52.294Z,0.00
2018-04-01T03:19:52.215Z,0.00
2018-04-01T03:20:52.137Z,0.00
2018-04-01T03:21:52.052Z,0.00
2018-04-01T03:22:51.976Z,0.00
2018-04-01T03:23:51.898Z,0.00
2018-04-01T03:24:51.817Z,0.00
2018-04-01T03:25:51.740Z,0.00
2018-04-01T03:26:51.660Z,0.00
2018-04-01T03:27:51.580Z,0.00
2018-04-01T03:28:51.503Z,0.00
2018-04-01T03:29:51.420Z,0.00
2018-04-01T03:30:51.343Z,0.00
2018-04-01T03:31:51.264Z,0.00
2018-04-01T03:32:51.183Z,0.00
2018-04-01T03:33:51.104Z,0.00
2018-04-01T03:34:51.025Z,0.00
2018-04-01T03:35:50.949Z,0.00
2018-04-01T03:36:50.864Z,0.00
2018-04-01T03:37:50.788Z,0.00
2018-04-01T03:38:50.706Z,0.00
2018-04-01T03:39:50.629Z,0.00
2018-04-01T03:40:50.549Z,0.00
2018-04-01T03:41:50.474Z,0.00
2018-04-01T03:42:50.442Z,0.00
2018-04-01T03:43:50.324Z,0.00
2018-04-01T03:44:50.235Z,0.00
2018-04-01T03:45:50.162Z,0.00
2018-04-01T03:46:50.081Z,0.00
2018-04-01T03:47:49.995Z,0.00
2018-04-01T03:48:49.915Z,0.00
2018-04-01T03:49:49.837Z,0.00
2018-04-01T03:50:49.759Z,0.00
2018-04-01T03:51:49.679Z,0.00
2018-04-01T03:52:49.600Z,0.00
2018-04-01T03:53:49.523Z,0.00
2018-04-01T03:54:49.444Z,0.00
2018-04-01T03:55:49.364Z,0.00
2018-04-01T03:56:49.282Z,0.00
2018-04-01T03:57:49.205Z,0.00
2018-04-01T03:58:49.124Z,0.00
2018-04-01T03:59:49.045Z,0.00
2018-04-01T04:00:48.965Z,0.00
2018-04-01T04:01:48.885Z,0.00
2018-04-01T04:02:48.808Z,0.00
2018-04-01T04:03:48.730Z,0.00
2018-04-01T04:04:48.649Z,0.00
2018-04-01T04:05:48.570Z,0.00
2018-04-01T04:06:48.494Z,0.00
2018-04-01T04:07:48.410Z,0.00
2018-04-01T04:08:48.332Z,0.00
2018-04-01T04:09:48.254Z,0.00
2018-04-01T04:10:48.174Z,0.00
2018-04-01T04:11:48.094Z,0.00
2018-04-01T04:12:48.015Z,0.00
2018-04-01T04:13:47.935Z,0.00
2018-04-01T04:14:47.858Z,0.00
2018-04-01T04:15:47.780Z,0.00
2018-04-01T04:16:47.700Z,0.00
2018-04-01T04:17:47.617Z,0.00
2018-04-01T04:18:47.540Z,0.00
2018-04-01T04:19:47.462Z,0.00
2018-04-01T04:20:47.382Z,0.00
2018-04-01T04:21:47.302Z,0.00
2018-04-01T04:22:47.225Z,0.00
2018-04-01T04:23:47.145Z,0.00
2018-04-01T04:24:47.069Z,0.00
2018-04-01T04:25:46.988Z,0.00
2018-04-01T04:26:46.910Z,0.00
2018-04-01T04:27:46.831Z,0.00
2018-04-01T04:28:46.749Z,0.00
2018-04-01T04:29:46.671Z,0.00
2018-04-01T04:30:46.593Z,0.00
2018-04-01T04:31:46.511Z,0.00
2018-04-01T04:32:46.437Z,0.00
2018-04-01T04:33:46.352Z,0.00
2018-04-01T04:34:46.273Z,0.00
2018-04-01T04:35:46.196Z,0.00
2018-04-01T04:36:46.115Z,0.00
2018-04-01T04:37:46.035Z,0.00
2018-04-01T04:38:45.966Z,0.00
2018-04-01T04:39:45.878Z,0.00
2018-04-01T04:40:45.798Z,0.00
2018-04-01T04:41:45.719Z,0.00
2018-04-01T04:42:45.690Z,4.00
2018-04-01T04:43:45.563Z,0.00
2018-04-01T04:44:45.481Z,4.00
2018-04-01T04:45:45.402Z,4.00
2018-04-01T04:46:45.326Z,4.00
2018-04-01T04:47:45.249Z,4.00
2018-04-01T04:48:45.165Z,8.00
2018-04-01T04:49:45.084Z,8.00
2018-04-01T04:50:45.011Z,8.00
2018-04-01T04:51:44.927Z,12.00
2018-04-01T04:52:44.861Z,12.00
2018-04-01T04:53:44.775Z,12.00
2018-04-01T04:54:44.688Z,12.00
2018-04-01T04:55:44.612Z,16.00
2018-04-01T04:56:44.531Z,16.00
2018-04-01T04:57:44.452Z,20.00
2018-04-01T04:58:44.372Z,24.00
2018-04-01T04:59:44.294Z,28.00
2018-04-01T05:00:44.218Z,32.00
2018-04-01T05:01:44.136Z,32.00
2018-04-01T05:02:44.054Z,36.00
2018-04-01T05:03:43.979Z,36.00
2018-04-01T05:04:43.897Z,28.00
2018-04-01T05:05:43.819Z,24.00
2018-04-01T05:06:43.743Z,28.00
2018-04-01T05:07:43.662Z,32.00
2018-04-01T05:08:43.581Z,36.00
2018-04-01T05:09:43.504Z,40.00
2018-04-01T05:10:43.440Z,36.00
2018-04-01T05:11:43.346Z,36.00
2018-04-01T05:12:43.264Z,36.00
2018-04-01T05:13:43.185Z,40.00
2018-04-01T05:14:43.101Z,40.00
2018-04-01T05:15:43.029Z,36.00
2018-04-01T05:16:42.953Z,44.00
2018-04-01T05:17:42.870Z,48.00
2018-04-01T05:18:42.792Z,52.00
2018-04-01T05:19:42.713Z,56.00
2018-04-01T05:20:42.638Z,56.00
2018-04-01T05:21:42.553Z,64.00
2018-04-01T05:22:42.476Z,72.00
2018-04-01T05:23:42.401Z,80.00
2018-04-01T05:24:42.318Z,72.00
2018-04-01T05:25:42.241Z,64.00
2018-04-01T05:26:42.160Z,64.00
2018-04-01T05:27:42.079Z,60.00
2018-04-01T05:28:42.000Z,68.00
2018-04-01T05:29:41.922Z,84.00
2018-04-01T05:30:41.843Z,120.00
2018-04-01T05:31:41.767Z,148.00
2018-04-01T05:32:41.686Z,160.00
2018-04-01T05:33:41.605Z,164.00
2018-04-01T05:34:41.527Z,156.00
2018-04-01T05:35:41.448Z,156.00
2018-04-01T05:36:41.368Z,136.00
2018-04-01T05:37:41.293Z,104.00
2018-04-01T05:38:41.217Z,128.00
2018-04-01T05:39:41.133Z,156.00
2018-04-01T05:40:41.055Z,184.00
2018-04-01T05:41:40.972Z,188.00
2018-04-01T05:42:40.895Z,228.00
2018-04-01T05:43:40.821Z,272.00
2018-04-01T05:44:40.738Z,284.00
2018-04-01T05:45:40.659Z,300.00
2018-04-01T05:46:40.583Z,332.00
2018-04-01T05:47:40.500Z,296.00
2018-04-01T05:48:40.422Z,292.00
2018-04-01T05:49:40.349Z,248.00
2018-04-01T05:50:40.265Z,220.00
2018-04-01T05:51:40.186Z,228.00
2018-04-01T05:52:40.108Z,236.00
2018-04-01T05:53:40.027Z,204.00
2018-04-01T05:54:39.950Z,200.00
2018-04-01T05:55:39.873Z,228.00
2018-04-01T05:56:39.792Z,276.00
2018-04-01T05:57:39.714Z,352.00
2018-04-01T05:58:39.635Z,352.00
2018-04-01T05:59:39.556Z,364.00
2018-04-01T06:00:39.476Z,440.00
2018-04-01T06:01:39.403Z,452.00
2018-04-01T06:02:39.320Z,444.00
2018-04-01T06:03:39.244Z,400.00
2018-04-01T06:04:39.161Z,400.00
2018-04-01T06:05:39.089Z,400.00
2018-04-01T06:06:39.004Z,424.00
2018-04-01T06:07:38.934Z,492.00
2018-04-01T06:08:38.849Z,580.00
2018-04-01T06:09:38.771Z,756.00
2018-04-01T06:10:38.688Z,1040.00
2018-04-01T06:11:38.610Z,1328.00
2018-04-01T06:12:38.531Z,1592.00
2018-04-01T06:13:38.454Z,1764.00
2018-04-01T06:14:38.375Z,1900.00
2018-04-01T06:15:38.294Z,2080.00
2018-04-01T06:16:38.216Z,2172.00
2018-04-01T06:17:38.138Z,2224.00
2018-04-01T06:18:38.058Z,2272.00
2018-04-01T06:19:37.983Z,2384.00
2018-04-01T06:20:37.900Z,2548.00
2018-04-01T06:21:37.826Z,2732.00
2018-04-01T06:22:37.744Z,2828.00
2018-04-01T06:23:37.669Z,2848.00
2018-04-01T06:24:37.589Z,2984.00
2018-04-01T06:25:37.511Z,3276.00
2018-04-01T06:26:37.432Z,3348.00
2018-04-01T06:27:37.351Z,3108.00
2018-04-01T06:28:37.275Z,2672.00
2018-04-01T06:29:37.194Z,2208.00
2018-04-01T06:30:37.115Z,1804.00
2018-04-01T06:31:37.036Z,1712.00
2018-04-01T06:32:36.958Z,1920.00
2018-04-01T06:33:36.883Z,2248.00
2018-04-01T06:34:36.802Z,2336.00
2018-04-01T06:35:36.726Z,2192.00
2018-04-01T06:36:36.645Z,2292.00
2018-04-01T06:37:36.568Z,2708.00
2018-04-01T06:38:36.489Z,3192.00
2018-04-01T06:39:36.410Z,3392.00
2018-04-01T06:40:36.336Z,3432.00
2018-04-01T06:41:36.256Z,3188.00
2018-04-01T06:42:36.182Z,3104.00
2018-04-01T06:43:36.107Z,3048.00
2018-04-01T06:44:36.020Z,2712.00
2018-04-01T06:45:35.940Z,2664.00
2018-04-01T06:46:35.863Z,2664.00
2018-04-01T06:47:35.787Z,2580.00
2018-04-01T06:48:35.706Z,2420.00
2018-04-01T06:49:35.632Z,2492.00
2018-04-01T06:50:35.554Z,2928.00
2018-04-01T06:51:35.471Z,3068.00
2018-04-01T06:52:35.392Z,2732.00
2018-04-01T06:53:35.315Z,2580.00
2018-04-01T06:54:35.248Z,2352.00
2018-04-01T06:55:35.159Z,2220.00
2018-04-01T06:56:35.080Z,2104.00
2018-04-01T06:57:35.002Z,2012.00
2018-04-01T06:58:34.923Z,2056.00
2018-04-01T06:59:34.846Z,1924.00
2018-04-01T07:00:34.768Z,1656.00
2018-04-01T07:01:34.690Z,1664.00
2018-04-01T07:02:34.662Z,1700.00
2018-04-01T07:03:34.540Z,1740.00
2018-04-01T07:04:34.461Z,1976.00
2018-04-01T07:05:34.388Z,2548.00
2018-04-01T07:06:34.299Z,2692.00
2018-04-01T07:07:34.220Z,2404.00
2018-04-01T07:08:34.137Z,2688.00
2018-04-01T07:09:34.065Z,3000.00
2018-04-01T07:10:33.985Z,2908.00
2018-04-01T07:11:33.906Z,2660.00
2018-04-01T07:12:33.826Z,2796.00
2018-04-01T07:13:33.751Z,2648.00
2018-04-01T07:14:33.670Z,2216.00
2018-04-01T07:15:33.595Z,2016.00
2018-04-01T07:16:33.547Z,1624.00
2018-04-01T07:17:33.488Z,1572.00
2018-04-01T07:18:33.415Z,2380.00
2018-04-01T07:19:33.280Z,3260.00
2018-04-01T07:20:33.204Z,3476.00
2018-04-01T07:21:33.126Z,3532.00
2018-04-01T07:22:33.045Z,3448.00
2018-04-01T07:23:32.964Z,3216.00
2018-04-01T07:24:32.889Z,2592.00
2018-04-01T07:25:32.806Z,1724.00
2018-04-01T07:26:32.738Z,1044.00
2018-04-01T07:27:32.652Z,936.00
2018-04-01T07:28:32.572Z,900.00
2018-04-01T07:29:32.493Z,1172.00
2018-04-01T07:30:32.415Z,1292.00
2018-04-01T07:31:32.335Z,1480.00
2018-04-01T07:32:32.253Z,1256.00
2018-04-01T07:33:32.178Z,1388.00
2018-04-01T07:34:32.100Z,1124.00
2018-04-01T07:35:32.019Z,1704.00
2018-04-01T07:36:31.940Z,1876.00
2018-04-01T07:37:31.862Z,2008.00
2018-04-01T07:38:31.782Z,1832.00
2018-04-01T07:39:31.702Z,1844.00
2018-04-01T07:40:31.624Z,1500.00
2018-04-01T07:41:31.544Z,1256.00
2018-04-01T07:42:31.468Z,1140.00
2018-04-01T07:43:31.386Z,924.00
2018-04-01T07:44:31.307Z,868.00
2018-04-01T07:45:31.231Z,876.00
2018-04-01T07:46:31.149Z,760.00
2018-04-01T07:47:31.070Z,664.00
2018-04-01T07:48:30.990Z,804.00
2018-04-01T07:49:30.911Z,620.00
2018-04-01T07:50:30.833Z,712.00
2018-04-01T07:51:30.758Z,744.00
2018-04-01T07:52:30.674Z,760.00
2018-04-01T07:53:30.594Z,824.00
2018-04-01T07:54:30.522Z,924.00
2018-04-01T07:55:30.433Z,940.00
2018-04-01T07:56:30.351Z,924.00
2018-04-01T07:57:30.275Z,876.00
2018-04-01T07:58:30.197Z,688.00
2018-04-01T07:59:30.118Z,660.00
2018-04-01T08:00:30.042Z,672.00
2018-04-01T08:01:29.954Z,636.00
2018-04-01T08:02:29.877Z,632.00
2018-04-01T08:03:29.802Z,616.00
2018-04-01T08:04:29.718Z,556.00
2018-04-01T08:05:29.635Z,520.00
2018-04-01T08:06:29.559Z,480.00
2018-04-01T08:07:29.484Z,472.00
2018-04-01T08:08:29.399Z,732.00
2018-04-01T08:09:29.320Z,1036.00
2018-04-01T08:10:29.263Z,1272.00
2018-04-01T08:11:29.173Z,1356.00
2018-04-01T08:12:29.081Z,1432.00
2018-04-01T08:13:29.004Z,1324.00
2018-04-01T08:14:28.923Z,1092.00
2018-04-01T08:15:28.842Z,976.00
2018-04-01T08:16:28.770Z,1060.00
2018-04-01T08:17:28.684Z,1316.00
2018-04-01T08:18:28.605Z,1884.00
2018-04-01T08:19:28.523Z,2092.00
2018-04-01T08:20:28.444Z,2000.00
2018-04-01T08:21:28.448Z,2168.00
2018-04-01T08:22:28.285Z,2092.00
2018-04-01T08:23:28.205Z,1916.00
2018-04-01T08:24:28.127Z,2268.00
2018-04-01T08:25:28.052Z,2488.00
2018-04-01T08:26:27.968Z,3592.00
2018-04-01T08:27:27.889Z,4236.00
2018-04-01T08:28:27.809Z,3852.00
2018-04-01T08:29:27.730Z,3420.00
2018-04-01T08:30:27.651Z,2876.00
2018-04-01T08:31:27.573Z,2848.00
2018-04-01T08:32:27.495Z,2772.00
2018-04-01T08:33:27.414Z,3032.00
2018-04-01T08:34:27.333Z,3120.00
2018-04-01T08:35:27.256Z,3292.00
2018-04-01T08:36:27.172Z,3124.00
2018-04-01T08:37:27.097Z,2700.00
2018-04-01T08:38:27.018Z,2288.00
2018-04-01T08:39:26.940Z,2908.00
2018-04-01T08:40:26.856Z,2820.00
2018-04-01T08:41:26.777Z,2252.00
2018-04-01T08:42:26.697Z,1904.00
2018-04-01T08:43:26.621Z,1672.00
2018-04-01T08:44:26.544Z,1844.00
2018-04-01T08:45:26.459Z,2044.00
2018-04-01T08:46:26.379Z,2308.00
2018-04-01T08:47:26.300Z,2536.00
2018-04-01T08:48:26.233Z,2740.00
2018-04-01T08:49:26.145Z,2788.00
2018-04-01T08:50:26.065Z,2392.00
2018-04-01T08:51:25.984Z,2444.00
2018-04-01T08:52:25.905Z,2740.00
2018-04-01T08:53:25.834Z,2908.00
2018-04-01T08:54:25.749Z,3388.00
2018-04-01T08:55:25.664Z,4132.00
2018-04-01T08:56:25.600Z,4892.00
2018-04-01T08:57:25.511Z,4260.00
2018-04-01T08:58:25.429Z,3044.00
2018-04-01T08:59:25.387Z,3644.00
2018-04-01T09:00:25.276Z,4172.00
2018-04-01T09:01:25.195Z,3156.00
2018-04-01T09:02:25.113Z,4308.00
2018-04-01T09:03:25.038Z,5896.00
2018-04-01T09:04:24.954Z,4072.00
2018-04-01T09:05:24.876Z,3244.00
2018-04-01T09:06:24.798Z,3480.00
2018-04-01T09:07:24.718Z,2512.00
2018-04-01T09:08:24.636Z,1912.00
2018-04-01T09:09:24.571Z,1504.00
2018-04-01T09:10:24.519Z,1380.00
2018-04-01T09:11:24.402Z,1396.00
2018-04-01T09:12:24.326Z,1784.00
2018-04-01T09:13:24.253Z,2084.00
2018-04-01T09:14:24.167Z,1344.00
2018-04-01T09:15:24.084Z,1320.00
2018-04-01T09:16:24.011Z,1288.00
2018-04-01T09:17:23.934Z,1084.00
2018-04-01T09:18:23.852Z,1104.00
2018-04-01T09:19:23.768Z,1072.00
2018-04-01T09:20:23.690Z,1408.00
2018-04-01T09:21:23.610Z,2216.00
2018-04-01T09:22:23.531Z,3296.00
2018-04-01T09:23:23.452Z,3416.00
2018-04-01T09:24:23.373Z,2896.00
2018-04-01T09:25:23.295Z,2212.00
2018-04-01T09:26:23.216Z,1860.00
2018-04-01T09:27:23.136Z,1608.00
2018-04-01T09:28:23.060Z,1384.00
2018-04-01T09:29:22.983Z,1384.00
2018-04-01T09:30:22.900Z,1204.00
2018-04-01T09:31:22.820Z,1072.00
2018-04-01T09:32:22.748Z,1016.00
2018-04-01T09:33:22.662Z,996.00
2018-04-01T09:34:22.582Z,972.00
2018-04-01T09:35:22.503Z,996.00
2018-04-01T09:36:22.422Z,1188.00
2018-04-01T09:37:22.344Z,1156.00
2018-04-01T09:38:22.266Z,1072.00
2018-04-01T09:39:22.189Z,1188.00
2018-04-01T09:40:22.106Z,1268.00
2018-04-01T09:41:22.029Z,1500.00
2018-04-01T09:42:21.951Z,1832.00
2018-04-01T09:43:21.874Z,1816.00
2018-04-01T09:44:21.792Z,2276.00
2018-04-01T09:45:21.716Z,2756.00
2018-04-01T09:46:21.637Z,3112.00
2018-04-01T09:47:21.554Z,4232.00
2018-04-01T09:48:21.474Z,5304.00
2018-04-01T09:49:21.395Z,4784.00
2018-04-01T09:50:21.314Z,3304.00
2018-04-01T09:51:21.252Z,3968.00
2018-04-01T09:52:21.161Z,5440.00
2018-04-01T09:53:21.082Z,5472.00
2018-04-01T09:54:21.003Z,4520.00
2018-04-01T09:55:20.935Z,4268.00
2018-04-01T09:56:20.841Z,3772.00
2018-04-01T09:57:20.765Z,3724.00
2018-04-01T09:58:20.690Z,4628.00
2018-04-01T09:59:20.606Z,5836.00
2018-04-01T10:00:20.557Z,7872.00
2018-04-01T10:01:20.451Z,9568.00
2018-04-01T10:02:20.366Z,9140.00
2018-04-01T10:03:20.293Z,6776.00
2018-04-01T10:04:20.210Z,6548.00
2018-04-01T10:05:20.133Z,7244.00
2018-04-01T10:06:20.054Z,6164.00
2018-04-01T10:07:19.980Z,5488.00
2018-04-01T10:08:19.895Z,4764.00
2018-04-01T10:09:19.818Z,4440.00
2018-04-01T10:10:19.744Z,3716.00
2018-04-01T10:11:19.661Z,2612.00
2018-04-01T10:12:19.584Z,2528.00
2018-04-01T10:13:19.505Z,3236.00
2018-04-01T10:14:19.423Z,3204.00
2018-04-01T10:15:19.347Z,3052.00
2018-04-01T10:16:19.270Z,3424.00
2018-04-01T10:17:19.190Z,3276.00
2018-04-01T10:18:19.119Z,2488.00
2018-04-01T10:19:19.031Z,2252.00
2018-04-01T10:20:18.951Z,3160.00
2018-04-01T10:21:18.881Z,3464.00
2018-04-01T10:22:18.799Z,2508.00
2018-04-01T10:23:18.720Z,2064.00
2018-04-01T10:24:18.638Z,1820.00
2018-04-01T10:25:18.560Z,2592.00
2018-04-01T10:26:18.480Z,3168.00
2018-04-01T10:27:18.407Z,3576.00
2018-04-01T10:28:18.326Z,3588.00
2018-04-01T10:29:18.247Z,3420.00
2018-04-01T10:30:18.169Z,3596.00
2018-04-01T10:31:18.090Z,3772.00
2018-04-01T10:32:18.011Z,3544.00
2018-04-01T10:33:17.938Z,3456.00
2018-04-01T10:34:17.852Z,3332.00
2018-04-01T10:35:17.775Z,3180.00
2018-04-01T10:36:17.696Z,3208.00
2018-04-01T10:37:17.617Z,3180.00
2018-04-01T10:38:17.537Z,2980.00
2018-04-01T10:39:17.465Z,2904.00
2018-04-01T10:40:17.389Z,2768.00
2018-04-01T10:41:17.302Z,2552.00
2018-04-01T10:42:17.224Z,2416.00
2018-04-01T10:43:17.179Z,2252.00
2018-04-01T10:44:17.077Z,2148.00
2018-04-01T10:45:16.990Z,2172.00
2018-04-01T10:46:16.913Z,2136.00
2018-04-01T10:47:16.830Z,2044.00
2018-04-01T10:48:16.749Z,2132.00
2018-04-01T10:49:16.671Z,2252.00
2018-04-01T10:50:16.593Z,2220.00
2018-04-01T10:51:16.549Z,2056.00
2018-04-01T10:52:16.434Z,1820.00
2018-04-01T10:53:16.354Z,1828.00
2018-04-01T10:54:16.275Z,1872.00
2018-04-01T10:55:16.196Z,1912.00
2018-04-01T10:56:16.119Z,1804.00
2018-04-01T10:57:16.044Z,1780.00
2018-04-01T10:58:15.971Z,1632.00
2018-04-01T10:59:15.880Z,1716.00
2018-04-01T11:00:15.800Z,1772.00
2018-04-01T11:01:15.723Z,1584.00
2018-04-01T11:02:15.641Z,1532.00
2018-04-01T11:03:15.560Z,1484.00
2018-04-01T11:04:15.486Z,1740.00
2018-04-01T11:05:15.410Z,1764.00
2018-04-01T11:06:15.326Z,1552.00
2018-04-01T11:07:15.250Z,1564.00
2018-04-01T11:08:15.165Z,1592.00
2018-04-01T11:09:15.088Z,1368.00
2018-04-01T11:10:15.011Z,1360.00
2018-04-01T11:11:14.932Z,1340.00
2018-04-01T11:12:14.852Z,1236.00
2018-04-01T11:13:14.772Z,1192.00
2018-04-01T11:14:14.694Z,1172.00
2018-04-01T11:15:14.616Z,1132.00
2018-04-01T11:16:14.541Z,1124.00
2018-04-01T11:17:14.457Z,1160.00
2018-04-01T11:18:14.377Z,1212.00
2018-04-01T11:19:14.297Z,1156.00
2018-04-01T11:20:14.220Z,1068.00
2018-04-01T11:21:14.142Z,1064.00
2018-04-01T11:22:14.068Z,1136.00
2018-04-01T11:23:13.984Z,1160.00
2018-04-01T11:24:13.904Z,1092.00
2018-04-01T11:25:13.825Z,1068.00
2018-04-01T11:26:13.751Z,1152.00
2018-04-01T11:27:13.669Z,1312.00
2018-04-01T11:28:13.602Z,1684.00
2018-04-01T11:29:13.511Z,1948.00
2018-04-01T11:30:13.432Z,1968.00
2018-04-01T11:31:13.356Z,2320.00
2018-04-01T11:32:13.274Z,3004.00
2018-04-01T11:33:13.196Z,3312.00
2018-04-01T11:34:13.117Z,3132.00
2018-04-01T11:35:13.040Z,3084.00
2018-04-01T11:36:12.957Z,3724.00
2018-04-01T11:37:12.879Z,4328.00
2018-04-01T11:38:12.799Z,3760.00
2018-04-01T11:39:12.720Z,3020.00
2018-04-01T11:40:12.645Z,3768.00
2018-04-01T11:41:12.563Z,3720.00
2018-04-01T11:42:12.483Z,3456.00
2018-04-01T11:43:12.404Z,3476.00
2018-04-01T11:44:12.326Z,3020.00
2018-04-01T11:45:12.249Z,2960.00
2018-04-01T11:46:12.168Z,3136.00
2018-04-01T11:47:12.091Z,3192.00
2018-04-01T11:48:12.012Z,3420.00
2018-04-01T11:49:11.933Z,3780.00
2018-04-01T11:50:11.854Z,3556.00
2018-04-01T11:51:12.677Z,2968.00
2018-04-01T11:52:11.697Z,2864.00
2018-04-01T11:53:11.622Z,2936.00
2018-04-01T11:54:11.540Z,3228.00
2018-04-01T11:55:11.459Z,3324.00
2018-04-01T11:56:11.383Z,3476.00
2018-04-01T11:57:11.299Z,3464.00
2018-04-01T11:58:11.224Z,3348.00
2018-04-01T11:59:11.148Z,3352.00
2018-04-01T12:00:11.065Z,3444.00
2018-04-01T12:01:10.987Z,3664.00
2018-04-01T12:02:10.903Z,3788.00
2018-04-01T12:03:10.831Z,3712.00
2018-04-01T12:04:10.750Z,3656.00
2018-04-01T12:05:10.671Z,3680.00
2018-04-01T12:06:10.595Z,3700.00
2018-04-01T12:07:10.514Z,3660.00
2018-04-01T12:08:10.435Z,3460.00
2018-04-01T12:09:10.358Z,3308.00
2018-04-01T12:10:10.281Z,3376.00
2018-04-01T12:11:10.199Z,3384.00
2018-04-01T12:12:10.121Z,3356.00
2018-04-01T12:13:10.044Z,3256.00
2018-04-01T12:14:09.963Z,2976.00
2018-04-01T12:15:09.885Z,2920.00
2018-04-01T12:16:09.803Z,2984.00
2018-04-01T12:17:09.728Z,2984.00
2018-04-01T12:18:09.650Z,3040.00
2018-04-01T12:19:09.569Z,3120.00
2018-04-01T12:20:09.497Z,3056.00
2018-04-01T12:21:09.411Z,3040.00
2018-04-01T12:22:09.333Z,2984.00
2018-04-01T12:23:09.260Z,2592.00
2018-04-01T12:24:09.227Z,2532.00
2018-04-01T12:25:09.107Z,2960.00
2018-04-01T12:26:09.018Z,3212.00
2018-04-01T12:27:08.940Z,3452.00
2018-04-01T12:28:08.863Z,3512.00
2018-04-01T12:29:08.782Z,3344.00
2018-04-01T12:30:08.772Z,3340.00
2018-04-01T12:31:08.624Z,3344.00
2018-04-01T12:32:08.546Z,2912.00
2018-04-01T12:33:08.469Z,2784.00
2018-04-01T12:34:08.394Z,2964.00
2018-04-01T12:35:08.311Z,2932.00